createdAt,value
2019-05-26T00:00:17.687Z,16.70
2019-05-26T00:01:17.668Z,16.60
2019-05-26T00:02:17.643Z,17.00
2019-05-26T00:03:17.622Z,17.10
2019-05-26T00:04:17.600Z,16.60
2019-05-26T00:05:17.578Z,16.60
2019-05-26T00:06:17.555Z,17.00
2019-05-26T00:07:30.250Z,18.20
2019-05-26T00:08:17.511Z,18.40
2019-05-26T00:09:17.490Z,19.60
2019-05-26T00:10:17.480Z,20.30
2019-05-26T00:11:17.446Z,21.40
2019-05-26T00:12:17.424Z,21.10
2019-05-26T00:13:17.402Z,21.70
2019-05-26T00:14:17.380Z,21.20
2019-05-26T00:15:17.359Z,21.60
2019-05-26T00:16:17.358Z,21.40
2019-05-26T00:17:17.317Z,20.10
2019-05-26T00:18:17.337Z,20.40
2019-05-26T00:19:17.270Z,20.10
2019-05-26T00:20:17.249Z,21.30
2019-05-26T00:21:17.231Z,19.80
2019-05-26T00:22:17.204Z,19.80
2019-05-26T00:23:17.183Z,20.20
2019-05-26T00:24:17.159Z,18.40
2019-05-26T00:25:17.139Z,18.40
2019-05-26T00:26:17.116Z,17.60
2019-05-26T00:27:17.095Z,17.20
2019-05-26T00:28:17.073Z,18.20
2019-05-26T00:29:17.052Z,16.10
2019-05-26T00:30:17.027Z,15.40
2019-05-26T00:31:17.006Z,15.40
2019-05-26T00:32:16.984Z,15.30
2019-05-26T00:33:16.970Z,16.10
2019-05-26T00:34:16.940Z,17.10
2019-05-26T00:35:16.918Z,15.10
2019-05-26T00:36:16.896Z,16.20
2019-05-26T00:37:16.874Z,15.90
2019-05-26T00:38:16.852Z,15.40
2019-05-26T00:39:16.830Z,15.80
2019-05-26T00:40:16.808Z,15.60
2019-05-26T00:41:16.787Z,16.20
2019-05-26T00:42:16.768Z,16.70
2019-05-26T00:43:16.742Z,16.90
2019-05-26T00:44:16.720Z,16.60
2019-05-26T00:45:17.449Z,15.90
2019-05-26T00:46:16.676Z,16.80
2019-05-26T00:47:16.655Z,16.30
2019-05-26T00:48:16.632Z,16.60
2019-05-26T00:49:16.611Z,16.50
2019-05-26T00:50:16.587Z,17.50
2019-05-26T00:51:16.566Z,17.10
2019-05-26T00:52:16.544Z,16.30
2019-05-26T00:53:16.523Z,15.80
2019-05-26T00:54:16.499Z,16.10
2019-05-26T00:55:16.477Z,15.60
2019-05-26T00:56:16.456Z,15.70
2019-05-26T00:57:16.435Z,16.80
2019-05-26T00:58:16.412Z,16.30
2019-05-26T00:59:16.390Z,15.90
2019-05-26T01:00:16.368Z,16.00
2019-05-26T01:01:16.347Z,16.80
2019-05-26T01:02:16.324Z,16.50
2019-05-26T01:03:16.309Z,16.30
2019-05-26T01:04:16.282Z,16.60
2019-05-26T01:05:16.259Z,16.90
2019-05-26T01:06:16.236Z,17.20
2019-05-26T01:07:16.215Z,17.10
2019-05-26T01:08:16.194Z,17.40
2019-05-26T01:09:16.172Z,17.70
2019-05-26T01:10:16.149Z,19.30
2019-05-26T01:11:16.126Z,17.80
2019-05-26T01:12:16.106Z,17.40
2019-05-26T01:13:16.083Z,17.80
2019-05-26T01:14:16.062Z,17.70
2019-05-26T01:15:16.040Z,17.00
2019-05-26T01:16:16.018Z,18.90
2019-05-26T01:17:15.997Z,18.10
2019-05-26T01:18:15.977Z,18.40
2019-05-26T01:19:15.952Z,18.50
2019-05-26T01:20:15.932Z,20.20
2019-05-26T01:21:15.910Z,19.90
2019-05-26T01:22:15.887Z,21.00
2019-05-26T01:23:15.869Z,21.00
2019-05-26T01:24:15.846Z,19.60
2019-05-26T01:25:15.822Z,20.00
2019-05-26T01:26:15.800Z,20.80
2019-05-26T01:27:16.529Z,21.10
2019-05-26T01:28:15.757Z,21.90
2019-05-26T01:29:15.735Z,20.80
2019-05-26T01:30:15.714Z,21.80
2019-05-26T01:31:15.692Z,22.30
2019-05-26T01:32:15.671Z,21.80
2019-05-26T01:33:15.649Z,21.30
2019-05-26T01:34:15.625Z,21.50
2019-05-26T01:35:15.604Z,21.50
2019-05-26T01:36:15.582Z,22.60
2019-05-26T01:37:15.559Z,21.70
2019-05-26T01:38:23.699Z,22.40
2019-05-26T01:39:15.520Z,21.70
2019-05-26T01:40:15.495Z,22.20
2019-05-26T01:41:15.474Z,22.90
2019-05-26T01:42:15.451Z,22.60
2019-05-26T01:43:16.931Z,21.60
2019-05-26T01:44:15.408Z,21.50
2019-05-26T01:45:15.386Z,22.20
2019-05-26T01:46:15.364Z,22.80
2019-05-26T01:47:15.343Z,22.90
2019-05-26T01:48:15.320Z,23.10
2019-05-26T01:49:16.800Z,24.10
2019-05-26T01:50:15.276Z,23.70
2019-05-26T01:51:15.255Z,23.90
2019-05-26T01:52:15.233Z,23.20
2019-05-26T01:53:15.211Z,22.70
2019-05-26T01:54:15.187Z,24.80
2019-05-26T01:55:15.168Z,24.10
2019-05-26T01:56:15.145Z,24.70
2019-05-26T01:57:15.124Z,24.10
2019-05-26T01:58:15.101Z,24.90
2019-05-26T01:59:15.082Z,25.80
2019-05-26T02:00:15.065Z,24.60
2019-05-26T02:01:15.035Z,25.00
2019-05-26T02:02:15.013Z,26.00
2019-05-26T02:03:14.991Z,26.10
2019-05-26T02:04:14.969Z,25.10
2019-05-26T02:05:14.970Z,25.50
2019-05-26T02:06:16.428Z,26.90
2019-05-26T02:07:14.904Z,25.30
2019-05-26T02:08:14.883Z,25.20
2019-05-26T02:09:14.860Z,25.30
2019-05-26T02:10:14.837Z,26.40
2019-05-26T02:11:14.816Z,26.40
2019-05-26T02:12:19.297Z,26.40
2019-05-26T02:13:14.810Z,27.20
2019-05-26T02:14:14.826Z,26.10
2019-05-26T02:15:14.727Z,25.50
2019-05-26T02:16:14.705Z,24.40
2019-05-26T02:17:14.687Z,23.40
2019-05-26T02:18:14.726Z,24.50
2019-05-26T02:19:14.637Z,23.10
2019-05-26T02:20:14.616Z,23.30
2019-05-26T02:21:15.007Z,24.30
2019-05-26T02:22:14.571Z,25.60
2019-05-26T02:23:14.551Z,24.30
2019-05-26T02:24:14.527Z,23.20
2019-05-26T02:25:14.511Z,23.10
2019-05-26T02:26:14.483Z,23.90
2019-05-26T02:27:14.462Z,24.40
2019-05-26T02:28:14.440Z,24.20
2019-05-26T02:29:15.919Z,23.10
2019-05-26T02:30:14.397Z,23.30
2019-05-26T02:31:14.376Z,24.10
2019-05-26T02:32:14.352Z,23.50
2019-05-26T02:33:14.331Z,22.70
2019-05-26T02:34:14.309Z,21.80
2019-05-26T02:35:14.291Z,21.90
2019-05-26T02:36:14.266Z,22.70
2019-05-26T02:37:14.243Z,24.10
2019-05-26T02:38:14.235Z,24.10
2019-05-26T02:39:14.198Z,25.60
2019-05-26T02:40:14.178Z,23.40
2019-05-26T02:41:14.155Z,24.30
2019-05-26T02:42:14.132Z,23.60
2019-05-26T02:43:14.110Z,24.60
2019-05-26T02:44:14.087Z,22.40
2019-05-26T02:45:14.066Z,23.50
2019-05-26T02:46:14.043Z,23.10
2019-05-26T02:47:14.022Z,21.70
2019-05-26T02:48:14.000Z,21.50
2019-05-26T02:49:14.007Z,21.50
2019-05-26T02:50:13.955Z,24.30
2019-05-26T02:51:14.688Z,21.00
2019-05-26T02:52:13.914Z,22.80
2019-05-26T02:53:13.889Z,21.60
2019-05-26T02:54:13.870Z,22.10
2019-05-26T02:55:13.851Z,23.20
2019-05-26T02:56:13.823Z,24.10
2019-05-26T02:57:13.800Z,24.50
2019-05-26T02:58:13.778Z,24.30
2019-05-26T02:59:13.757Z,23.60
2019-05-26T03:00:13.735Z,24.40
2019-05-26T03:01:13.713Z,23.00
2019-05-26T03:02:13.690Z,24.00
2019-05-26T03:03:13.679Z,23.60
2019-05-26T03:04:13.645Z,23.00
2019-05-26T03:05:13.624Z,23.70
2019-05-26T03:06:13.602Z,24.90
2019-05-26T03:07:13.579Z,24.80
2019-05-26T03:08:13.566Z,25.70
2019-05-26T03:09:22.713Z,23.90
2019-05-26T03:10:13.511Z,26.00
2019-05-26T03:11:13.505Z,25.30
2019-05-26T03:12:13.467Z,26.80
2019-05-26T03:13:13.465Z,24.60
2019-05-26T03:14:13.423Z,25.90
2019-05-26T03:15:13.401Z,25.10
2019-05-26T03:16:13.378Z,24.40
2019-05-26T03:17:13.357Z,25.00
2019-05-26T03:18:13.339Z,24.50
2019-05-26T03:19:13.312Z,24.70
2019-05-26T03:20:13.296Z,26.00
2019-05-26T03:21:13.272Z,25.70
2019-05-26T03:22:13.246Z,24.10
2019-05-26T03:23:13.224Z,24.90
2019-05-26T03:24:13.201Z,23.70
2019-05-26T03:25:13.234Z,25.40
2019-05-26T03:26:13.156Z,25.80
2019-05-26T03:27:13.133Z,25.20
2019-05-26T03:28:13.111Z,27.20
2019-05-26T03:29:13.088Z,24.70
2019-05-26T03:30:13.090Z,23.80
2019-05-26T03:31:13.067Z,26.70
2019-05-26T03:32:13.021Z,26.70
2019-05-26T03:33:13.004Z,23.80
2019-05-26T03:34:12.989Z,23.40
2019-05-26T03:35:13.018Z,23.20
2019-05-26T03:36:12.997Z,23.90
2019-05-26T03:37:12.910Z,23.70
2019-05-26T03:38:12.886Z,23.90
2019-05-26T03:39:12.873Z,23.40
2019-05-26T03:40:12.844Z,23.20
2019-05-26T03:41:12.820Z,23.50
2019-05-26T03:42:12.795Z,23.00
2019-05-26T03:43:12.785Z,22.10
2019-05-26T03:44:12.752Z,23.70
2019-05-26T03:45:12.730Z,22.90
2019-05-26T03:46:12.705Z,23.70
2019-05-26T03:47:16.580Z,22.90
2019-05-26T03:48:12.698Z,23.00
2019-05-26T03:49:12.641Z,24.50
2019-05-26T03:50:12.617Z,22.90
2019-05-26T03:51:12.593Z,23.80
2019-05-26T03:52:12.583Z,23.20
2019-05-26T03:53:12.549Z,23.20
2019-05-26T03:54:13.277Z,23.30
2019-05-26T03:55:12.510Z,21.60
2019-05-26T03:56:12.483Z,21.30
2019-05-26T03:57:12.457Z,22.40
2019-05-26T03:58:12.436Z,22.90
2019-05-26T03:59:12.419Z,24.10
2019-05-26T04:00:12.392Z,22.90
2019-05-26T04:01:12.383Z,24.00
2019-05-26T04:02:12.349Z,23.50
2019-05-26T04:03:12.325Z,23.40
2019-05-26T04:04:12.304Z,21.90
2019-05-26T04:05:12.279Z,22.40
2019-05-26T04:06:12.256Z,21.70
2019-05-26T04:07:12.233Z,21.40
2019-05-26T04:08:12.214Z,22.50
2019-05-26T04:09:12.195Z,23.90
2019-05-26T04:10:12.167Z,23.00
2019-05-26T04:11:12.158Z,22.70
2019-05-26T04:12:12.121Z,22.00
2019-05-26T04:13:12.099Z,22.40
2019-05-26T04:14:12.076Z,22.30
2019-05-26T04:15:12.054Z,24.30
2019-05-26T04:16:12.036Z,26.30
2019-05-26T04:17:12.012Z,26.30
2019-05-26T04:18:11.987Z,26.10
2019-05-26T04:19:11.965Z,25.30
2019-05-26T04:20:11.943Z,25.80
2019-05-26T04:21:11.921Z,24.70
2019-05-26T04:22:11.898Z,23.70
2019-05-26T04:23:11.875Z,26.00
2019-05-26T04:24:11.855Z,27.50
2019-05-26T04:25:11.830Z,28.70
2019-05-26T04:26:11.857Z,26.40
2019-05-26T04:27:11.786Z,25.70
2019-05-26T04:28:11.767Z,26.40
2019-05-26T04:29:11.748Z,27.30
2019-05-26T04:30:11.721Z,27.10
2019-05-26T04:31:11.697Z,26.80
2019-05-26T04:32:11.675Z,27.10
2019-05-26T04:33:11.657Z,28.20
2019-05-26T04:34:11.629Z,26.90
2019-05-26T04:35:11.606Z,28.20
2019-05-26T04:36:11.584Z,28.00
2019-05-26T04:37:11.562Z,27.20
2019-05-26T04:38:11.539Z,28.60
2019-05-26T04:39:11.517Z,28.70
2019-05-26T04:40:26.004Z,29.90
2019-05-26T04:41:11.471Z,30.80
2019-05-26T04:42:11.449Z,29.10
2019-05-26T04:43:14.761Z,29.30
2019-05-26T04:44:11.408Z,29.30
2019-05-26T04:45:11.382Z,30.10
2019-05-26T04:46:11.359Z,30.80
2019-05-26T04:47:11.340Z,29.50
2019-05-26T04:48:11.323Z,31.30
2019-05-26T04:49:11.293Z,31.50
2019-05-26T04:50:11.270Z,32.30
2019-05-26T04:51:11.246Z,32.90
2019-05-26T04:52:13.477Z,31.60
2019-05-26T04:53:11.202Z,30.80
2019-05-26T04:54:11.186Z,31.80
2019-05-26T04:55:11.159Z,31.30
2019-05-26T04:56:11.139Z,31.80
2019-05-26T04:57:11.112Z,32.60
2019-05-26T04:58:11.089Z,30.90
2019-05-26T04:59:11.079Z,30.80
2019-05-26T05:00:11.046Z,31.20
2019-05-26T05:01:11.023Z,32.70
2019-05-26T05:02:11.001Z,32.50
2019-05-26T05:03:10.978Z,32.00
2019-05-26T05:04:10.956Z,29.70
2019-05-26T05:05:10.934Z,30.30
2019-05-26T05:06:10.911Z,31.10
2019-05-26T05:07:10.888Z,31.20
2019-05-26T05:08:10.872Z,30.80
2019-05-26T05:09:10.846Z,29.60
2019-05-26T05:10:10.821Z,31.20
2019-05-26T05:11:10.798Z,30.70
2019-05-26T05:12:10.777Z,29.60
2019-05-26T05:13:10.754Z,30.10
2019-05-26T05:14:10.730Z,28.60
2019-05-26T05:15:10.711Z,28.70
2019-05-26T05:16:10.686Z,28.20
2019-05-26T05:17:10.664Z,26.20
2019-05-26T05:18:10.641Z,27.90
2019-05-26T05:19:10.618Z,28.60
2019-05-26T05:20:10.597Z,28.30
2019-05-26T05:21:10.575Z,27.00
2019-05-26T05:22:10.552Z,27.80
2019-05-26T05:23:10.530Z,26.90
2019-05-26T05:24:10.506Z,26.20
2019-05-26T05:25:15.136Z,27.40
2019-05-26T05:26:10.463Z,24.60
2019-05-26T05:27:10.442Z,26.50
2019-05-26T05:28:10.419Z,25.20
2019-05-26T05:29:10.397Z,25.10
2019-05-26T05:30:11.876Z,25.30
2019-05-26T05:31:10.351Z,25.20
2019-05-26T05:32:10.331Z,24.70
2019-05-26T05:33:10.308Z,24.00
2019-05-26T05:34:10.286Z,24.40
2019-05-26T05:35:10.267Z,23.30
2019-05-26T05:36:10.242Z,23.70
2019-05-26T05:37:10.220Z,23.60
2019-05-26T05:38:10.203Z,24.30
2019-05-26T05:39:10.176Z,23.80
2019-05-26T05:40:10.156Z,23.70
2019-05-26T05:41:10.131Z,24.10
2019-05-26T05:42:10.109Z,23.70
2019-05-26T05:43:10.089Z,23.70
2019-05-26T05:44:10.067Z,23.80
2019-05-26T05:45:10.053Z,22.80
2019-05-26T05:46:10.023Z,22.00
2019-05-26T05:47:10.000Z,22.90
2019-05-26T05:48:09.990Z,22.30
2019-05-26T05:49:09.958Z,21.60
2019-05-26T05:50:09.936Z,21.20
2019-05-26T05:51:09.915Z,21.70
2019-05-26T05:52:09.893Z,22.60
2019-05-26T05:53:09.872Z,22.20
2019-05-26T05:54:09.849Z,22.80
2019-05-26T05:55:09.827Z,22.00
2019-05-26T05:56:09.816Z,21.90
2019-05-26T05:57:09.785Z,21.70
2019-05-26T05:58:09.765Z,22.20
2019-05-26T05:59:09.744Z,20.50
2019-05-26T06:00:09.720Z,22.00
2019-05-26T06:01:09.700Z,22.40
2019-05-26T06:02:09.679Z,20.20
2019-05-26T06:03:09.656Z,20.80
2019-05-26T06:04:09.635Z,20.80
2019-05-26T06:05:09.614Z,20.20
2019-05-26T06:06:09.592Z,20.70
2019-05-26T06:07:09.571Z,20.60
2019-05-26T06:08:09.561Z,20.60
2019-05-26T06:09:09.529Z,20.10
2019-05-26T06:10:09.510Z,19.30
2019-05-26T06:11:16.657Z,18.90
2019-05-26T06:12:09.467Z,19.50
2019-05-26T06:13:09.446Z,18.40
2019-05-26T06:14:10.924Z,18.00
2019-05-26T06:15:09.403Z,17.70
2019-05-26T06:16:09.383Z,18.00
2019-05-26T06:17:10.552Z,19.10
2019-05-26T06:18:09.342Z,17.60
2019-05-26T06:19:09.325Z,16.30
2019-05-26T06:20:09.301Z,16.70
2019-05-26T06:21:09.281Z,17.40
2019-05-26T06:22:09.260Z,17.50
2019-05-26T06:23:09.240Z,16.20
2019-05-26T06:24:09.220Z,17.90
2019-05-26T06:25:09.215Z,16.80
2019-05-26T06:26:09.179Z,18.40
2019-05-26T06:27:09.160Z,17.00
2019-05-26T06:28:09.140Z,17.50
2019-05-26T06:29:09.120Z,18.00
2019-05-26T06:30:09.104Z,17.00
2019-05-26T06:31:09.082Z,17.50
2019-05-26T06:32:09.378Z,17.40
2019-05-26T06:33:09.040Z,17.70
2019-05-26T06:34:09.020Z,15.70
2019-05-26T06:35:09.005Z,17.10
2019-05-26T06:36:08.981Z,17.30
2019-05-26T06:37:08.961Z,16.70
2019-05-26T06:38:08.942Z,15.90
2019-05-26T06:39:08.925Z,16.50
2019-05-26T06:40:08.900Z,17.20
2019-05-26T06:41:08.881Z,15.90
2019-05-26T06:42:12.295Z,16.50
2019-05-26T06:43:08.839Z,15.80
2019-05-26T06:44:08.820Z,17.50
2019-05-26T06:45:08.801Z,16.00
2019-05-26T06:46:08.779Z,16.10
2019-05-26T06:47:08.769Z,15.30
2019-05-26T06:48:08.739Z,15.60
2019-05-26T06:49:08.719Z,15.00
2019-05-26T06:50:08.699Z,14.30
2019-05-26T06:51:08.683Z,14.70
2019-05-26T06:52:08.659Z,14.50
2019-05-26T06:53:08.638Z,12.80
2019-05-26T06:54:08.617Z,12.30
2019-05-26T06:55:08.597Z,13.60
2019-05-26T06:56:08.579Z,13.80
2019-05-26T06:57:08.559Z,13.70
2019-05-26T06:58:10.040Z,13.40
2019-05-26T06:59:08.523Z,13.20
2019-05-26T07:00:08.503Z,14.30
2019-05-26T07:01:08.477Z,12.10
2019-05-26T07:02:08.460Z,12.40
2019-05-26T07:03:08.438Z,11.40
2019-05-26T07:04:09.167Z,11.40
2019-05-26T07:05:08.397Z,11.40
2019-05-26T07:06:08.378Z,11.20
2019-05-26T07:07:08.359Z,11.90
2019-05-26T07:08:08.336Z,11.40
2019-05-26T07:09:08.318Z,11.20
2019-05-26T07:10:08.297Z,10.40
2019-05-26T07:11:08.280Z,10.80
2019-05-26T07:12:08.257Z,11.20
2019-05-26T07:13:08.238Z,12.00
2019-05-26T07:14:08.216Z,10.20
2019-05-26T07:15:08.197Z,11.10
2019-05-26T07:16:08.178Z,10.80
2019-05-26T07:17:08.221Z,11.20
2019-05-26T07:18:08.138Z,11.10
2019-05-26T07:19:08.118Z,10.40
2019-05-26T07:20:08.099Z,9.50
2019-05-26T07:21:08.080Z,10.30
2019-05-26T07:22:08.059Z,10.10
2019-05-26T07:23:08.882Z,10.50
2019-05-26T07:24:08.019Z,10.70
2019-05-26T07:25:08.004Z,10.10
2019-05-26T07:26:07.979Z,10.40
2019-05-26T07:27:07.960Z,11.10
2019-05-26T07:28:07.941Z,11.10
2019-05-26T07:29:07.921Z,12.30
2019-05-26T07:30:07.903Z,12.40
2019-05-26T07:31:07.880Z,11.70
2019-05-26T07:32:07.861Z,11.70
2019-05-26T07:33:07.842Z,12.60
2019-05-26T07:34:07.821Z,12.60
2019-05-26T07:35:07.812Z,12.80
2019-05-26T07:36:07.783Z,12.40
2019-05-26T07:37:07.763Z,12.40
2019-05-26T07:38:07.743Z,13.30
2019-05-26T07:39:07.725Z,13.60
2019-05-26T07:40:07.709Z,13.30
2019-05-26T07:41:07.686Z,14.40
2019-05-26T07:42:10.605Z,13.80
2019-05-26T07:43:07.645Z,14.20
2019-05-26T07:44:07.625Z,13.50
2019-05-26T07:45:07.605Z,14.50
2019-05-26T07:46:07.589Z,13.50
2019-05-26T07:47:07.569Z,12.90
2019-05-26T07:48:07.548Z,14.10
2019-05-26T07:49:07.528Z,14.00
2019-05-26T07:50:07.511Z,13.20
2019-05-26T07:51:07.491Z,14.50
2019-05-26T07:52:07.469Z,13.90
2019-05-26T07:53:07.449Z,13.50
2019-05-26T07:54:07.433Z,12.90
2019-05-26T07:55:07.413Z,13.10
2019-05-26T07:56:07.389Z,13.50
2019-05-26T07:57:07.370Z,13.20
2019-05-26T07:58:07.355Z,12.40
2019-05-26T07:59:07.330Z,13.70
2019-05-26T08:00:07.312Z,12.80
2019-05-26T08:01:07.292Z,13.40
2019-05-26T08:02:07.271Z,13.70
2019-05-26T08:03:07.251Z,14.30
2019-05-26T08:04:07.232Z,13.40
2019-05-26T08:05:07.216Z,14.00
2019-05-26T08:06:07.196Z,14.20
2019-05-26T08:07:07.173Z,13.20
2019-05-26T08:08:13.072Z,13.30
2019-05-26T08:09:07.135Z,12.80
2019-05-26T08:10:07.117Z,12.90
2019-05-26T08:11:07.096Z,12.60
2019-05-26T08:12:07.078Z,12.60
2019-05-26T08:13:07.059Z,12.10
2019-05-26T08:14:07.041Z,12.50
2019-05-26T08:15:07.033Z,12.10
2019-05-26T08:16:07.002Z,12.10
2019-05-26T08:17:06.985Z,11.80
2019-05-26T08:18:06.963Z,11.50
2019-05-26T08:19:06.945Z,11.60
2019-05-26T08:20:06.930Z,11.40
2019-05-26T08:21:06.907Z,11.90
2019-05-26T08:22:06.887Z,11.00
2019-05-26T08:23:06.869Z,10.90
2019-05-26T08:24:06.851Z,11.30
2019-05-26T08:25:06.833Z,11.40
2019-05-26T08:26:06.813Z,11.60
2019-05-26T08:27:06.794Z,11.00
2019-05-26T08:28:06.776Z,10.30
2019-05-26T08:29:08.261Z,10.40
2019-05-26T08:30:06.737Z,11.70
2019-05-26T08:31:06.720Z,12.60
2019-05-26T08:32:06.698Z,13.00
2019-05-26T08:33:06.679Z,11.80
2019-05-26T08:34:06.659Z,11.10
2019-05-26T08:35:06.640Z,10.70
2019-05-26T08:36:06.651Z,10.80
2019-05-26T08:37:06.603Z,10.50
2019-05-26T08:38:06.585Z,10.70
2019-05-26T08:39:06.564Z,10.30
2019-05-26T08:40:06.545Z,10.20
2019-05-26T08:41:06.530Z,10.30
2019-05-26T08:42:06.514Z,10.50
2019-05-26T08:43:06.486Z,10.20
2019-05-26T08:44:06.467Z,10.30
2019-05-26T08:45:06.448Z,10.40
2019-05-26T08:46:06.428Z,11.50
2019-05-26T08:47:06.409Z,10.10
2019-05-26T08:48:06.400Z,10.80
2019-05-26T08:49:06.373Z,10.90
2019-05-26T08:50:06.351Z,10.70
2019-05-26T08:51:08.584Z,10.90
2019-05-26T08:52:06.313Z,9.90
2019-05-26T08:53:06.305Z,10.60
2019-05-26T08:54:06.274Z,9.80
2019-05-26T08:55:06.256Z,10.10
2019-05-26T08:56:06.236Z,9.70
2019-05-26T08:57:07.719Z,9.10
2019-05-26T08:58:06.199Z,8.80
2019-05-26T08:59:06.302Z,9.30
2019-05-26T09:00:06.162Z,8.80
2019-05-26T09:01:06.148Z,9.20
2019-05-26T09:02:06.120Z,8.80
2019-05-26T09:03:07.602Z,9.00
2019-05-26T09:04:06.082Z,9.70
2019-05-26T09:05:06.065Z,9.10
2019-05-26T09:06:06.044Z,9.70
2019-05-26T09:07:06.027Z,8.30
2019-05-26T09:08:08.166Z,9.60
2019-05-26T09:09:07.491Z,9.80
2019-05-26T09:10:05.966Z,8.40
2019-05-26T09:11:05.946Z,8.60
2019-05-26T09:12:05.928Z,9.70
2019-05-26T09:13:05.908Z,10.00
2019-05-26T09:14:05.887Z,9.30
2019-05-26T09:15:05.869Z,10.30
2019-05-26T09:16:05.850Z,9.40
2019-05-26T09:17:05.831Z,9.00
2019-05-26T09:18:05.812Z,9.20
2019-05-26T09:19:05.791Z,11.00
2019-05-26T09:20:05.773Z,9.90
2019-05-26T09:21:05.754Z,9.30
2019-05-26T09:22:05.755Z,9.00
2019-05-26T09:23:05.717Z,9.70
2019-05-26T09:24:05.696Z,10.70
2019-05-26T09:25:05.676Z,11.40
2019-05-26T09:26:09.410Z,10.00
2019-05-26T09:27:05.637Z,9.40
2019-05-26T09:28:05.618Z,10.30
2019-05-26T09:29:05.599Z,11.90
2019-05-26T09:30:05.583Z,15.60
2019-05-26T09:31:05.560Z,9.80
2019-05-26T09:32:07.042Z,11.70
2019-05-26T09:33:05.520Z,9.00
2019-05-26T09:34:05.507Z,9.70
2019-05-26T09:35:05.481Z,10.00
2019-05-26T09:36:05.465Z,10.10
2019-05-26T09:37:05.443Z,8.10
2019-05-26T09:38:06.177Z,8.90
2019-05-26T09:39:05.405Z,8.50
2019-05-26T09:40:05.383Z,8.60
2019-05-26T09:41:05.365Z,8.40
2019-05-26T09:42:05.346Z,8.40
2019-05-26T09:43:15.753Z,8.60
2019-05-26T09:44:05.310Z,8.90
2019-05-26T09:45:05.287Z,8.20
2019-05-26T09:46:05.267Z,8.20
2019-05-26T09:47:05.248Z,9.50
2019-05-26T09:48:05.229Z,7.70
2019-05-26T09:49:05.210Z,8.40
2019-05-26T09:50:05.189Z,8.60
2019-05-26T09:51:05.170Z,8.00
2019-05-26T09:52:05.154Z,7.80
2019-05-26T09:53:05.133Z,8.90
2019-05-26T09:54:05.113Z,8.50
2019-05-26T09:55:05.093Z,7.70
2019-05-26T09:56:05.075Z,8.80
2019-05-26T09:57:05.056Z,8.50
2019-05-26T09:58:05.036Z,8.30
2019-05-26T09:59:05.017Z,8.70
2019-05-26T10:00:04.999Z,7.50
2019-05-26T10:01:04.978Z,8.30
2019-05-26T10:02:04.974Z,8.10
2019-05-26T10:03:04.941Z,8.90
2019-05-26T10:04:04.922Z,9.00
2019-05-26T10:05:04.903Z,8.60
2019-05-26T10:06:04.883Z,9.00
2019-05-26T10:07:04.867Z,8.60
2019-05-26T10:08:04.845Z,7.60
2019-05-26T10:09:04.829Z,9.70
2019-05-26T10:10:05.557Z,10.70
2019-05-26T10:11:04.789Z,9.50
2019-05-26T10:12:04.768Z,8.50
2019-05-26T10:13:04.750Z,9.10
2019-05-26T10:14:04.737Z,9.40
2019-05-26T10:15:04.713Z,8.70
2019-05-26T10:16:04.694Z,8.20
2019-05-26T10:17:04.675Z,8.60
2019-05-26T10:18:04.656Z,10.00
2019-05-26T10:19:04.639Z,8.90
2019-05-26T10:20:04.632Z,8.30
2019-05-26T10:21:04.601Z,8.40
2019-05-26T10:22:04.582Z,11.00
2019-05-26T10:23:04.565Z,8.90
2019-05-26T10:24:04.545Z,7.10
2019-05-26T10:25:04.530Z,7.00
2019-05-26T10:26:04.510Z,8.30
2019-05-26T10:27:04.489Z,8.50
2019-05-26T10:28:04.470Z,6.60
2019-05-26T10:29:04.452Z,7.10
2019-05-26T10:30:04.434Z,7.60
2019-05-26T10:31:04.414Z,10.00
2019-05-26T10:32:05.900Z,8.50
2019-05-26T10:33:04.378Z,8.90
2019-05-26T10:34:04.358Z,12.70
2019-05-26T10:35:04.340Z,7.90
2019-05-26T10:36:04.322Z,7.40
2019-05-26T10:37:04.376Z,10.90
2019-05-26T10:38:05.909Z,7.20
2019-05-26T10:39:04.266Z,8.20
2019-05-26T10:40:04.247Z,7.20
2019-05-26T10:41:04.230Z,5.80
2019-05-26T10:42:04.257Z,6.30
2019-05-26T10:43:04.192Z,5.60
2019-05-26T10:44:06.456Z,9.10
2019-05-26T10:45:04.158Z,6.50
2019-05-26T10:46:04.137Z,6.00
2019-05-26T10:47:04.119Z,7.40
2019-05-26T10:48:04.101Z,7.70
2019-05-26T10:49:04.082Z,6.80
2019-05-26T10:50:04.063Z,6.40
2019-05-26T10:51:06.859Z,6.80
2019-05-26T10:52:04.026Z,7.10
2019-05-26T10:53:04.011Z,7.20
2019-05-26T10:54:03.988Z,5.60
2019-05-26T10:55:03.971Z,6.90
2019-05-26T10:56:03.954Z,7.80
2019-05-26T10:57:03.934Z,7.60
2019-05-26T10:58:03.916Z,7.30
2019-05-26T10:59:03.897Z,8.30
2019-05-26T11:00:03.883Z,7.40
2019-05-26T11:01:03.865Z,7.50
2019-05-26T11:02:03.843Z,7.20
2019-05-26T11:03:03.825Z,7.00
2019-05-26T11:04:03.806Z,6.20
2019-05-26T11:05:03.789Z,7.10
2019-05-26T11:06:03.773Z,6.40
2019-05-26T11:07:03.752Z,6.30
2019-05-26T11:08:03.734Z,6.60
2019-05-26T11:09:03.715Z,5.90
2019-05-26T11:10:03.697Z,7.10
2019-05-26T11:11:03.683Z,6.70
2019-05-26T11:12:03.665Z,8.60
2019-05-26T11:13:03.645Z,6.20
2019-05-26T11:14:03.884Z,6.30
2019-05-26T11:15:03.609Z,8.50
2019-05-26T11:16:03.592Z,7.20
2019-05-26T11:17:03.584Z,7.70
2019-05-26T11:18:03.562Z,6.90
2019-05-26T11:19:03.537Z,7.20
2019-05-26T11:20:03.520Z,8.90
2019-05-26T11:21:03.505Z,7.60
2019-05-26T11:22:03.484Z,7.90
2019-05-26T11:23:03.466Z,7.30
2019-05-26T11:24:03.453Z,9.40
2019-05-26T11:25:03.432Z,7.20
2019-05-26T11:26:03.413Z,6.50
2019-05-26T11:27:10.020Z,10.00
2019-05-26T11:28:05.633Z,7.20
2019-05-26T11:29:03.362Z,8.00
2019-05-26T11:30:03.342Z,8.10
2019-05-26T11:31:03.327Z,7.00
2019-05-26T11:32:03.309Z,8.60
2019-05-26T11:33:03.291Z,7.00
2019-05-26T11:34:04.062Z,7.20
2019-05-26T11:35:03.255Z,8.20
2019-05-26T11:36:03.238Z,7.30
2019-05-26T11:37:03.238Z,7.10
2019-05-26T11:38:03.203Z,7.10
2019-05-26T11:39:03.186Z,7.30
2019-05-26T11:40:03.169Z,7.90
2019-05-26T11:41:03.157Z,6.60
2019-05-26T11:42:12.770Z,8.10
2019-05-26T11:43:15.841Z,6.50
2019-05-26T11:44:17.077Z,7.40
2019-05-26T11:45:03.145Z,6.90
2019-05-26T11:46:03.068Z,6.20
2019-05-26T11:47:03.051Z,7.20
2019-05-26T11:48:03.059Z,7.40
2019-05-26T11:49:03.023Z,7.10
2019-05-26T11:50:03.001Z,7.80
2019-05-26T11:51:02.997Z,7.40
2019-05-26T11:52:02.968Z,7.40
2019-05-26T11:53:02.951Z,7.80
2019-05-26T11:54:02.934Z,6.50
2019-05-26T11:55:02.925Z,7.90
2019-05-26T11:56:02.902Z,7.90
2019-05-26T11:57:02.885Z,8.40
2019-05-26T11:58:02.870Z,7.20
2019-05-26T11:59:02.852Z,7.60
2019-05-26T12:00:02.962Z,7.40
2019-05-26T12:01:02.821Z,7.60
2019-05-26T12:02:02.805Z,7.60
2019-05-26T12:03:02.787Z,7.50
2019-05-26T12:04:02.771Z,7.60
2019-05-26T12:05:02.755Z,7.40
2019-05-26T12:06:04.240Z,7.00
2019-05-26T12:07:04.492Z,8.80
2019-05-26T12:08:02.710Z,9.00
2019-05-26T12:09:02.692Z,8.30
2019-05-26T12:10:02.688Z,8.10
2019-05-26T12:11:02.660Z,7.10
2019-05-26T12:12:02.650Z,10.30
2019-05-26T12:13:02.627Z,7.60
2019-05-26T12:14:02.612Z,7.70
2019-05-26T12:15:02.597Z,7.00
2019-05-26T12:16:02.581Z,6.40
2019-05-26T12:17:02.566Z,7.50
2019-05-26T12:18:02.550Z,7.60
2019-05-26T12:19:02.534Z,9.50
2019-05-26T12:20:05.014Z,9.90
2019-05-26T12:21:02.506Z,8.40
2019-05-26T12:22:02.487Z,7.70
2019-05-26T12:23:02.474Z,8.00
2019-05-26T12:24:02.458Z,7.60
2019-05-26T12:25:02.444Z,7.50
2019-05-26T12:26:02.427Z,8.30
2019-05-26T12:27:02.411Z,7.00
2019-05-26T12:28:02.402Z,7.40
2019-05-26T12:29:02.384Z,7.60
2019-05-26T12:30:02.368Z,7.40
2019-05-26T12:31:02.359Z,7.50
2019-05-26T12:32:02.337Z,7.10
2019-05-26T12:33:02.326Z,7.40
2019-05-26T12:34:02.318Z,7.10
2019-05-26T12:35:02.296Z,8.50
2019-05-26T12:36:02.281Z,7.30
2019-05-26T12:37:02.266Z,6.80
2019-05-26T12:38:02.254Z,6.90
2019-05-26T12:39:02.240Z,6.60
2019-05-26T12:40:02.225Z,8.10
2019-05-26T12:41:02.210Z,9.00
2019-05-26T12:42:02.197Z,9.10
2019-05-26T12:43:02.181Z,7.40
2019-05-26T12:44:02.168Z,7.70
2019-05-26T12:45:02.171Z,7.00
2019-05-26T12:46:02.139Z,7.40
2019-05-26T12:47:02.127Z,7.00
2019-05-26T12:48:02.113Z,6.90
2019-05-26T12:49:02.099Z,6.40
2019-05-26T12:50:02.132Z,6.60
2019-05-26T12:51:02.071Z,7.90
2019-05-26T12:52:02.058Z,6.60
2019-05-26T12:53:02.044Z,6.90
2019-05-26T12:54:02.032Z,8.50
2019-05-26T12:55:02.025Z,6.20
2019-05-26T12:56:02.005Z,6.20
2019-05-26T12:57:01.990Z,6.50
2019-05-26T12:58:01.975Z,6.30
2019-05-26T12:59:01.963Z,5.70
2019-05-26T13:00:02.310Z,5.50